Red Rock, Oklahoma
Current Conditions -  °F | °C
As of 5:53 AM on Monday 20 Oct 2014 (Local Time) from KPNC Reporting Station
Scattered Clouds Scattered Clouds  
Wind Chill: 16°   Ceiling: Unl
Heat Index: 16°   Visibility: 10mi
Dew Point: 12°   Wind: 3mph
Humidity: 80%   Direction: 160°SSE
Pressure: 30.02"   Gusts: NA
Location:  36.46°N, 97.18°W
Report Text: KPNC 201053Z AUTO 16003KT 10SM SCT070 16/12 A3002 RMK AO2 SLP155 T01560122
Loading
Personal Weather Stations






























Interactive Weather Map
Tropical Storm Tracking
New forecast layout! Learn more

10-Day Weather Forecast

Advertisements
Track Severe Weather on mobile